createdAt,value
2022-11-12T00:00:01.525Z,103095.25
2022-11-12T00:04:57.985Z,103103.78
2022-11-12T00:09:54.491Z,103086.41
2022-11-12T00:14:55.392Z,103087.06
2022-11-12T00:19:52.081Z,103096.81
2022-11-12T00:24:48.511Z,103107.97
2022-11-12T00:29:52.832Z,103095.63
2022-11-12T00:35:00.294Z,103095.50
2022-11-12T00:40:08.018Z,103090.28
2022-11-12T00:45:05.010Z,103083.25
2022-11-12T00:50:12.254Z,103066.69
2022-11-12T00:55:11.128Z,103062.28
2022-11-12T01:00:08.184Z,103051.78
2022-11-12T01:05:16.581Z,103092.13
2022-11-12T01:10:16.638Z,103061.53
2022-11-12T01:15:13.275Z,103080.59
2022-11-12T01:20:21.095Z,103071.78
2022-11-12T01:25:23.948Z,103053.53
2022-11-12T01:30:26.967Z,103095.19
2022-11-12T01:35:31.072Z,103092.31
2022-11-12T01:40:32.953Z,103061.88
2022-11-12T01:45:34.828Z,103088.94
2022-11-12T01:50:41.006Z,103073.25
2022-11-12T01:55:47.879Z,103083.00
2022-11-12T02:00:52.110Z,103068.97
2022-11-12T02:05:56.128Z,103085.44
2022-11-12T02:10:53.980Z,103075.91
2022-11-12T02:16:03.424Z,103069.78
2022-11-12T02:21:36.438Z,103095.78
2022-11-12T02:26:39.548Z,103059.69
2022-11-12T02:31:39.125Z,103048.34
2022-11-12T02:36:35.574Z,103069.47
2022-11-12T02:41:39.967Z,103068.44
2022-11-12T02:46:36.450Z,103081.19
2022-11-12T02:51:32.887Z,103094.03
2022-11-12T02:56:29.357Z,103081.00
2022-11-12T03:01:25.877Z,103088.53
2022-11-12T03:06:22.428Z,103079.81
2022-11-12T03:11:19.172Z,103096.06
2022-11-12T03:16:15.454Z,103107.81
2022-11-12T03:21:12.949Z,103105.59
2022-11-12T03:26:09.632Z,103100.50
2022-11-12T03:31:06.190Z,103110.63
2022-11-12T03:36:03.068Z,103125.13
2022-11-12T03:40:59.363Z,103104.97
2022-11-12T03:45:55.815Z,103090.28
2022-11-12T03:50:52.292Z,103112.81
2022-11-12T03:55:57.656Z,103119.03
2022-11-12T04:00:54.257Z,103111.47
2022-11-12T04:06:09.674Z,103089.09
2022-11-12T04:11:15.247Z,103127.69
2022-11-12T04:16:34.983Z,103141.22
2022-11-12T04:21:53.363Z,103136.13
2022-11-12T04:26:53.655Z,103117.81
2022-11-12T04:31:50.088Z,103117.09
2022-11-12T04:36:46.537Z,103134.00
2022-11-12T04:42:01.212Z,103138.47
2022-11-12T04:46:57.674Z,103134.22
2022-11-12T04:52:06.957Z,103139.75
2022-11-12T04:57:03.416Z,103136.28
2022-11-12T05:01:59.920Z,103143.47
2022-11-12T05:06:57.084Z,103138.31
2022-11-12T05:11:57.361Z,103134.06
2022-11-12T05:16:53.784Z,103147.50
2022-11-12T05:22:05.165Z,103130.84
2022-11-12T05:27:02.260Z,103129.25
2022-11-12T05:31:58.698Z,103150.56
2022-11-12T05:36:55.176Z,103132.22
2022-11-12T05:42:11.813Z,103129.53
2022-11-12T05:47:09.252Z,103144.75
2022-11-12T05:52:05.692Z,103143.09
2022-11-12T05:57:02.133Z,103148.44
2022-11-12T06:01:58.907Z,103160.88
2022-11-12T06:06:55.417Z,103146.91
2022-11-12T06:11:51.970Z,103153.25
2022-11-12T06:16:48.539Z,103166.59
2022-11-12T06:21:51.934Z,103158.75
2022-11-12T06:26:49.800Z,103164.13
2022-11-12T06:31:52.252Z,103166.91
2022-11-12T06:36:49.171Z,103165.28
2022-11-12T06:41:45.537Z,103177.63
2022-11-12T06:46:42.024Z,103155.72
2022-11-12T06:51:39.806Z,103198.16
2022-11-12T06:56:36.287Z,103188.47
2022-11-12T07:01:32.824Z,103203.66
2022-11-12T07:06:29.307Z,103193.16
2022-11-12T07:11:25.762Z,103194.09
2022-11-12T07:16:22.415Z,103179.13
2022-11-12T15:33:58.453Z,103146.38
